createdAt,value
2022-08-11T00:01:21.819Z,99754.75
2022-08-11T00:03:56.786Z,99749.03
2022-08-11T00:06:30.447Z,99757.09
2022-08-11T00:09:02.110Z,99755.25
2022-08-11T00:11:37.711Z,99747.34
2022-08-11T00:14:19.287Z,99746.22
2022-08-11T00:17:03.925Z,99756.47
2022-08-11T00:20:12.252Z,99761.66
2022-08-11T00:22:30.121Z,99763.91
2022-08-11T00:25:02.674Z,99761.97
2022-08-11T00:27:38.027Z,99761.28
2022-08-11T00:30:12.237Z,99766.16
2022-08-11T00:32:44.906Z,99775.31
2022-08-11T00:35:54.046Z,99771.47
2022-08-11T00:38:16.286Z,99774.66
2022-08-11T00:40:56.509Z,99778.94
2022-08-11T00:43:49.262Z,99762.28
2022-08-11T00:46:40.099Z,99769.13
2022-08-11T00:49:23.014Z,99774.94
2022-08-11T00:52:14.783Z,99771.84
2022-08-11T00:56:11.747Z,99766.72
2022-08-11T00:59:34.306Z,99763.56
2022-08-11T01:02:48.505Z,99769.19
2022-08-11T01:05:51.717Z,99762.81
2022-08-11T01:09:21.926Z,99766.78
2022-08-11T01:12:36.047Z,99767.81
2022-08-11T01:15:59.598Z,99767.50
2022-08-11T01:20:47.915Z,99760.16
2022-08-11T01:23:50.218Z,99768.53
2022-08-11T01:27:20.010Z,99763.81
2022-08-11T01:30:49.207Z,99763.25
2022-08-11T01:34:32.653Z,99766.47
2022-08-11T01:37:31.631Z,99758.28
2022-08-11T01:40:58.373Z,99762.69
2022-08-11T01:44:38.813Z,99766.00
2022-08-11T01:47:53.090Z,99761.56
2022-08-11T01:50:47.694Z,99760.38
2022-08-11T01:53:40.110Z,99764.63
2022-08-11T01:56:30.981Z,99757.53
2022-08-11T01:59:17.659Z,99760.06
2022-08-11T02:02:21.533Z,99759.00
2022-08-11T02:05:00.965Z,99760.75
2022-08-11T02:07:37.531Z,99759.19
2022-08-11T02:10:42.317Z,99753.16
2022-08-11T02:13:38.395Z,99756.91
2022-08-11T02:16:34.543Z,99754.59
2022-08-11T02:19:39.659Z,99754.81
2022-08-11T02:22:36.386Z,99753.84
2022-08-11T02:25:13.855Z,99757.31
2022-08-11T02:27:54.671Z,99754.53
2022-08-11T02:30:32.653Z,99754.53
2022-08-11T02:33:23.307Z,99759.63
2022-08-11T02:36:04.777Z,99760.00
2022-08-11T02:38:43.537Z,99757.31
2022-08-11T02:41:43.309Z,99754.97
2022-08-11T02:44:31.223Z,99750.31
2022-08-11T02:47:14.637Z,99756.84
2022-08-11T02:50:03.458Z,99763.00
2022-08-11T02:52:46.582Z,99758.66
2022-08-11T02:55:56.485Z,99751.00
2022-08-11T02:58:37.948Z,99755.97
2022-08-11T03:01:18.719Z,99760.63
2022-08-11T03:04:02.062Z,99756.97
2022-08-11T03:06:40.119Z,99762.69
2022-08-11T03:09:20.446Z,99766.50
2022-08-11T03:12:24.560Z,99761.09
2022-08-11T03:15:21.348Z,99764.41
2022-08-11T03:18:05.575Z,99769.00
2022-08-11T03:20:46.591Z,99776.84
2022-08-11T03:23:30.952Z,99765.88
2022-08-11T03:26:11.148Z,99767.53
2022-08-11T03:28:52.946Z,99773.91
2022-08-11T03:31:32.139Z,99766.38
2022-08-11T03:34:08.380Z,99763.09
2022-08-11T03:37:47.355Z,99766.31
2022-08-11T03:40:55.006Z,99772.19
2022-08-11T03:43:58.600Z,99769.41
2022-08-11T03:46:52.835Z,99774.25
2022-08-11T03:49:39.356Z,99768.28
2022-08-11T03:52:22.850Z,99771.38
2022-08-11T03:55:05.624Z,99771.16
2022-08-11T03:58:46.194Z,99769.66
2022-08-11T04:02:04.959Z,99767.78
2022-08-11T04:05:42.535Z,99762.78
2022-08-11T04:09:16.934Z,99756.41
2022-08-11T04:12:45.618Z,99757.91
2022-08-11T04:16:11.598Z,99762.31
2022-08-11T04:19:49.877Z,99752.81
2022-08-11T04:22:51.351Z,99755.69
2022-08-11T04:25:58.057Z,99751.00
2022-08-11T04:29:15.239Z,99754.28
2022-08-11T04:32:05.951Z,99749.56
2022-08-11T04:35:18.853Z,99757.31
2022-08-11T04:38:34.073Z,99753.47
2022-08-11T04:42:09.887Z,99762.94
2022-08-11T04:45:36.254Z,99762.31
2022-08-11T04:49:06.568Z,99760.25
2022-08-11T04:52:38.283Z,99767.88
2022-08-11T04:56:03.416Z,99758.38
2022-08-11T04:59:27.463Z,99761.72
2022-08-11T05:03:00.093Z,99762.88
2022-08-11T05:06:07.922Z,99755.94
2022-08-11T05:09:25.233Z,99760.25
2022-08-11T05:12:27.231Z,99757.41
2022-08-11T05:15:16.268Z,99761.63
2022-08-11T05:18:15.710Z,99766.72
2022-08-11T05:21:09.734Z,99771.22
2022-08-11T05:24:02.522Z,99768.19
2022-08-11T05:27:02.132Z,99771.44
2022-08-11T05:30:01.634Z,99763.78
2022-08-11T05:33:00.984Z,99764.09
2022-08-11T05:36:00.590Z,99766.03
2022-08-11T05:38:51.847Z,99769.66
2022-08-11T05:41:42.371Z,99770.28
2022-08-11T05:44:37.405Z,99766.03
2022-08-11T05:47:25.111Z,99760.47
2022-08-11T05:50:13.565Z,99760.31
2022-08-11T05:53:09.340Z,99764.22
2022-08-11T05:56:02.480Z,99763.22
2022-08-11T05:58:42.319Z,99766.03
2022-08-11T06:01:15.793Z,99772.13
2022-08-11T06:04:04.463Z,99762.53
2022-08-11T06:06:33.992Z,99764.84
2022-08-11T06:09:03.794Z,99764.94
2022-08-11T06:11:44.168Z,99768.31
2022-08-11T06:14:16.643Z,99765.72
2022-08-11T06:16:52.043Z,99762.31
2022-08-11T06:19:25.014Z,99757.03
2022-08-11T06:21:55.842Z,99757.91
2022-08-11T06:24:25.168Z,99764.50
2022-08-11T06:27:13.546Z,99751.03
2022-08-11T06:29:54.716Z,99759.81
2022-08-11T06:32:30.396Z,99756.88
2022-08-11T06:35:23.354Z,99764.81
2022-08-11T06:38:16.320Z,99754.03
2022-08-11T06:41:09.694Z,99762.81
2022-08-11T06:43:55.198Z,99762.34
2022-08-11T06:46:31.796Z,99760.22
2022-08-11T06:49:04.815Z,99761.38
2022-08-11T06:51:37.269Z,99760.34
2022-08-11T06:54:14.824Z,99762.00
2022-08-11T06:57:28.328Z,99759.88
2022-08-11T07:00:10.149Z,99757.22
2022-08-11T07:02:49.719Z,99754.78
2022-08-11T07:05:28.467Z,99754.53
2022-08-11T07:09:04.034Z,99759.13
2022-08-11T07:12:52.322Z,99757.78
2022-08-11T07:16:10.667Z,99758.59
2022-08-11T07:18:54.849Z,99753.66
2022-08-11T07:22:01.794Z,99764.28
2022-08-11T07:24:59.316Z,99760.94
2022-08-11T07:28:04.248Z,99755.72
2022-08-11T07:30:40.436Z,99755.91
2022-08-11T07:33:19.022Z,99763.44
2022-08-11T07:36:04.707Z,99760.94
2022-08-11T07:38:46.066Z,99757.31
2022-08-11T07:41:18.536Z,99751.22
2022-08-11T07:43:51.670Z,99759.84
2022-08-11T07:46:39.303Z,99754.88
2022-08-11T07:49:28.600Z,99759.41
2022-08-11T07:52:15.342Z,99759.28
2022-08-11T07:54:51.158Z,99750.69
2022-08-11T07:58:13.833Z,99751.09
2022-08-11T08:00:51.645Z,99750.38
2022-08-11T08:03:39.527Z,99753.44
2022-08-11T08:06:41.695Z,99751.94
2022-08-11T08:09:30.728Z,99754.81
2022-08-11T08:12:22.380Z,99746.38
2022-08-11T08:15:09.814Z,99751.09
2022-08-11T08:18:10.070Z,99750.06
2022-08-11T08:20:50.758Z,99739.94
2022-08-11T08:23:33.436Z,99745.88
2022-08-11T08:26:05.581Z,99743.25
2022-08-11T08:28:36.475Z,99738.31
2022-08-11T08:31:05.032Z,99733.84
2022-08-11T08:33:34.463Z,99733.53
2022-08-11T08:36:14.856Z,99731.41
2022-08-11T08:38:50.398Z,99729.75
2022-08-11T08:41:24.353Z,99729.44
2022-08-11T08:44:27.366Z,99731.06
2022-08-11T08:46:55.505Z,99719.25
2022-08-11T08:49:33.642Z,99724.69
2022-08-11T08:52:25.346Z,99721.75
2022-08-11T08:55:05.649Z,99710.72
2022-08-11T08:57:39.591Z,99710.09
2022-08-11T09:00:12.495Z,99711.28
2022-08-11T09:02:46.113Z,99719.59
2022-08-11T09:05:18.551Z,99718.44
2022-08-11T09:07:51.592Z,99716.91
2022-08-11T09:10:22.904Z,99716.25
2022-08-11T09:12:53.112Z,99712.34
2022-08-11T09:15:26.193Z,99714.00
2022-08-11T09:18:06.127Z,99713.19
2022-08-11T09:20:37.483Z,99718.63
2022-08-11T09:24:08.930Z,99707.47
2022-08-11T09:26:34.970Z,99701.25
2022-08-11T09:29:05.558Z,99706.41
2022-08-11T09:31:40.146Z,99712.59
2022-08-11T09:34:11.687Z,99710.69
2022-08-11T09:37:02.170Z,99715.44
2022-08-11T09:39:51.215Z,99699.75
2022-08-11T09:42:23.951Z,99687.00
2022-08-11T09:44:53.842Z,99693.75
2022-08-11T09:47:29.690Z,99699.06
2022-08-11T09:50:02.459Z,99686.66
2022-08-11T09:52:37.171Z,99687.16
2022-08-11T09:55:11.370Z,99679.53
2022-08-11T09:58:00.127Z,99681.06
2022-08-11T10:00:37.376Z,99680.31
2022-08-11T10:03:13.812Z,99667.75
2022-08-11T10:06:08.264Z,99671.72
2022-08-11T10:08:41.992Z,99667.28
2022-08-11T10:11:15.547Z,99663.13
2022-08-11T10:14:31.430Z,99653.09
2022-08-11T10:16:54.839Z,99645.09
2022-08-11T10:19:26.277Z,99653.91
2022-08-11T10:22:14.182Z,99655.06
2022-08-11T10:28:29.010Z,99652.31
2022-08-11T10:31:22.519Z,99654.59
2022-08-11T10:34:04.002Z,99662.75
2022-08-11T10:36:43.060Z,99664.09
2022-08-11T10:39:18.248Z,99652.28
2022-08-11T10:42:12.249Z,99643.31
2022-08-11T10:44:47.199Z,99650.53
2022-08-11T10:47:35.003Z,99645.63
2022-08-11T10:50:26.427Z,99648.03
2022-08-11T10:53:17.989Z,99645.94
2022-08-11T10:56:06.345Z,99641.31
2022-08-11T10:58:48.665Z,99635.69
2022-08-11T11:01:28.591Z,99639.59
2022-08-11T11:04:02.474Z,99637.16
2022-08-11T11:06:44.943Z,99631.91
2022-08-11T11:09:20.704Z,99622.22
2022-08-11T11:12:12.537Z,99616.06
2022-08-11T11:15:02.810Z,99614.44
2022-08-11T11:17:57.749Z,99619.16
2022-08-11T11:20:36.489Z,99616.53
2022-08-11T11:23:13.669Z,99608.72
2022-08-11T11:26:10.403Z,99604.69
2022-08-11T11:29:22.542Z,99602.16
2022-08-11T11:32:17.821Z,99599.66
2022-08-11T11:35:32.084Z,99599.88
2022-08-11T11:38:04.886Z,99595.41
2022-08-11T11:40:37.557Z,99594.00
2022-08-11T11:43:08.602Z,99594.41
2022-08-11T11:45:38.071Z,99588.41
2022-08-11T11:48:07.761Z,99580.22
2022-08-11T11:50:39.440Z,99583.81
2022-08-11T11:53:11.241Z,99574.06
2022-08-11T11:55:40.608Z,99573.84
2022-08-11T11:58:28.600Z,99568.47
2022-08-11T12:01:17.664Z,99569.22
2022-08-11T12:03:51.342Z,99576.53
2022-08-11T12:06:25.427Z,99574.31
2022-08-11T12:08:58.968Z,99574.50
2022-08-11T12:11:48.103Z,99570.31
2022-08-11T12:14:22.583Z,99563.75
2022-08-11T12:16:52.001Z,99558.84
2022-08-11T12:19:26.311Z,99560.31
2022-08-11T12:22:15.961Z,99563.81
2022-08-11T12:25:04.672Z,99556.00
2022-08-11T12:27:33.672Z,99559.44
2022-08-11T12:30:10.903Z,99547.31
2022-08-11T12:32:42.242Z,99553.66
2022-08-11T12:35:11.681Z,99550.97
2022-08-11T12:37:45.937Z,99550.91
2022-08-11T12:41:03.466Z,99552.91
2022-08-11T12:43:57.137Z,99549.31
2022-08-11T12:46:34.124Z,99540.56
2022-08-11T12:49:31.087Z,99545.03
2022-08-11T12:52:12.927Z,99545.88
2022-08-11T12:54:52.838Z,99548.84
2022-08-11T12:57:47.721Z,99546.28
2022-08-11T13:00:36.361Z,99531.13
2022-08-11T13:03:28.962Z,99529.03
2022-08-11T13:06:00.148Z,99524.81
2022-08-11T13:08:32.775Z,99534.44
2022-08-11T13:11:21.503Z,99527.16
2022-08-11T13:13:57.726Z,99517.31
2022-08-11T13:16:31.993Z,99513.88
2022-08-11T13:19:02.864Z,99518.63
2022-08-11T13:21:32.891Z,99506.47
2022-08-11T13:24:03.823Z,99510.66
2022-08-11T13:26:47.772Z,99502.22
2022-08-11T13:29:24.289Z,99503.13
2022-08-11T13:31:57.058Z,99500.13
2022-08-11T13:34:31.546Z,99503.34
2022-08-11T13:37:05.385Z,99508.66
2022-08-11T13:39:37.333Z,99495.22
2022-08-11T13:42:07.652Z,99496.69
2022-08-11T13:44:40.029Z,99494.53
2022-08-11T13:47:13.227Z,99487.16
2022-08-11T13:49:45.838Z,99479.28
2022-08-11T13:52:17.996Z,99490.41
2022-08-11T13:54:53.565Z,99472.91
2022-08-11T13:58:09.072Z,99469.41
2022-08-11T14:00:27.712Z,99473.16
2022-08-11T14:02:59.424Z,99470.03
2022-08-11T14:05:35.450Z,99468.28
2022-08-11T14:08:38.086Z,99465.22
2022-08-11T14:12:23.071Z,99454.91
2022-08-11T14:14:27.668Z,99469.34
2022-08-11T14:16:58.939Z,99463.31
2022-08-11T14:19:30.542Z,99462.81
2022-08-11T14:22:08.112Z,99453.63
2022-08-11T14:24:41.130Z,99448.69
2022-08-11T14:28:15.411Z,99444.38
2022-08-11T14:30:02.819Z,99451.88
2022-08-11T14:32:32.544Z,99443.78
2022-08-11T14:35:03.339Z,99443.28
2022-08-11T14:37:33.656Z,99439.28
2022-08-11T14:40:24.144Z,99442.38
2022-08-11T14:43:19.771Z,99441.34
2022-08-11T14:46:26.695Z,99441.38
2022-08-11T14:48:55.823Z,99429.38
2022-08-11T14:51:25.340Z,99431.31
2022-08-11T14:54:16.220Z,99431.56
2022-08-11T14:56:44.929Z,99441.03
2022-08-11T14:59:15.310Z,99443.97
2022-08-11T15:02:03.065Z,99439.31
2022-08-11T15:04:36.122Z,99425.78
2022-08-11T15:07:16.660Z,99424.69
2022-08-11T15:12:41.982Z,99426.75
2022-08-11T15:15:30.222Z,99424.41
2022-08-11T15:18:04.358Z,99428.34
2022-08-11T15:20:53.818Z,99425.66
2022-08-11T15:23:40.477Z,99419.13
2022-08-11T15:26:17.221Z,99421.63
2022-08-11T15:29:08.725Z,99419.38
2022-08-11T15:31:57.618Z,99418.78
2022-08-11T15:34:47.826Z,99422.13
2022-08-11T15:37:31.549Z,99409.69
2022-08-11T15:40:34.536Z,99413.22
2022-08-11T15:43:32.253Z,99414.81
2022-08-11T15:46:10.818Z,99423.22
2022-08-11T15:48:48.508Z,99410.47
2022-08-11T15:51:29.003Z,99413.63
2022-08-11T15:54:08.560Z,99411.97
2022-08-11T15:56:43.906Z,99412.41
2022-08-11T15:59:41.870Z,99403.91
2022-08-11T16:02:33.691Z,99413.88
2022-08-11T16:05:08.115Z,99420.56
2022-08-11T16:07:40.645Z,99407.97
2022-08-11T16:10:19.094Z,99406.94
2022-08-11T16:13:23.707Z,99409.00
2022-08-11T16:16:15.568Z,99404.66
2022-08-11T16:18:52.654Z,99407.94
2022-08-11T16:21:34.638Z,99401.59
2022-08-11T16:24:09.474Z,99394.19
2022-08-11T16:27:10.505Z,99403.13
2022-08-11T16:29:47.896Z,99404.06
2022-08-11T16:32:23.678Z,99401.41
2022-08-11T16:35:16.134Z,99399.00
2022-08-11T16:38:06.571Z,99390.03
2022-08-11T16:40:36.916Z,99387.03
2022-08-11T16:43:27.685Z,99392.78
2022-08-11T16:46:15.630Z,99393.50
2022-08-11T16:48:50.634Z,99400.59
2022-08-11T16:51:20.973Z,99397.75
2022-08-11T16:54:04.339Z,99398.06
2022-08-11T16:56:43.065Z,99397.81
2022-08-11T16:59:19.966Z,99397.13
2022-08-11T17:01:54.253Z,99394.09
2022-08-11T17:04:54.880Z,99394.09
2022-08-11T17:07:44.282Z,99397.09
2022-08-11T17:10:53.396Z,99390.66
2022-08-11T17:13:36.587Z,99393.63
2022-08-11T17:16:12.716Z,99395.91
2022-08-11T17:18:59.257Z,99399.69
2022-08-11T17:21:35.067Z,99393.38
2022-08-11T17:24:09.441Z,99395.53
2022-08-11T17:26:57.130Z,99390.69
2022-08-11T17:29:30.648Z,99398.25
2022-08-11T17:32:21.112Z,99404.09
2022-08-11T17:35:11.178Z,99402.81
2022-08-11T17:37:44.263Z,99396.69
2022-08-11T17:40:18.638Z,99398.72
2022-08-11T17:43:05.794Z,99406.53
2022-08-11T17:45:56.578Z,99405.13
2022-08-11T17:48:27.999Z,99408.72
2022-08-11T17:51:00.424Z,99405.25
2022-08-11T17:54:13.424Z,99412.09
2022-08-11T17:57:00.079Z,99419.75
2022-08-11T17:59:49.304Z,99418.63
2022-08-11T18:02:40.428Z,99422.22
2022-08-11T18:05:13.530Z,99419.41
2022-08-11T18:08:04.327Z,99419.66
2022-08-11T18:10:54.294Z,99422.41
2022-08-11T18:13:43.660Z,99422.81
2022-08-11T18:16:30.979Z,99429.19
2022-08-11T18:19:18.099Z,99426.56
2022-08-11T18:22:14.959Z,99430.34
2022-08-11T18:25:08.964Z,99432.31
2022-08-11T18:28:02.962Z,99440.75
2022-08-11T18:31:03.458Z,99444.66
2022-08-11T18:34:14.250Z,99442.69
2022-08-11T18:37:05.958Z,99441.69
2022-08-11T18:40:00.746Z,99444.94
2022-08-11T18:42:51.461Z,99448.59
2022-08-11T18:45:45.641Z,99448.09
2022-08-11T18:48:39.677Z,99457.09
2022-08-11T18:51:30.897Z,99451.88
2022-08-11T18:54:28.927Z,99453.97
2022-08-11T18:57:21.289Z,99456.88
2022-08-11T19:00:10.910Z,99461.28
2022-08-11T19:03:00.364Z,99462.34
2022-08-11T19:06:06.127Z,99452.72
2022-08-11T19:09:05.245Z,99459.72
2022-08-11T19:11:53.534Z,99455.13
2022-08-11T19:14:43.884Z,99456.38
2022-08-11T19:17:44.587Z,99456.88
2022-08-11T19:20:38.247Z,99450.75
2022-08-11T19:23:29.186Z,99458.31
2022-08-11T19:26:17.390Z,99458.63
2022-08-11T19:29:07.432Z,99459.97
2022-08-11T19:31:55.744Z,99460.50
2022-08-11T19:34:43.963Z,99466.50
2022-08-11T19:37:32.177Z,99473.19
2022-08-11T19:40:24.085Z,99468.63
2022-08-11T19:43:18.778Z,99473.00
2022-08-11T19:46:17.528Z,99472.56
2022-08-11T19:49:08.410Z,99472.34
2022-08-11T19:51:56.776Z,99472.25
2022-08-11T19:54:48.711Z,99467.78
2022-08-11T19:57:39.927Z,99472.75
2022-08-11T20:00:31.826Z,99472.91
2022-08-11T20:03:19.520Z,99477.53
2022-08-11T20:06:07.416Z,99480.28
2022-08-11T20:08:59.096Z,99488.63
2022-08-11T20:11:51.846Z,99487.66
2022-08-11T20:14:41.385Z,99488.25
2022-08-11T20:17:31.135Z,99484.66
2022-08-11T20:20:20.487Z,99490.56
2022-08-11T20:23:09.537Z,99490.28
2022-08-11T20:26:08.564Z,99492.44
2022-08-11T20:29:09.121Z,99491.63
2022-08-11T20:31:57.108Z,99491.09
2022-08-11T20:34:43.890Z,99486.97
2022-08-11T20:37:31.980Z,99489.84
2022-08-11T20:40:23.866Z,99485.59
2022-08-11T20:44:04.974Z,99500.38
2022-08-11T20:46:21.369Z,99495.34
2022-08-11T20:49:10.399Z,99496.44
2022-08-11T20:52:01.081Z,99500.28
2022-08-11T20:54:54.709Z,99501.50
2022-08-11T20:58:00.163Z,99500.28
2022-08-11T21:00:50.979Z,99496.56
2022-08-11T21:03:45.265Z,99507.78
2022-08-11T21:06:46.178Z,99510.97
2022-08-11T21:12:43.260Z,99516.94
2022-08-11T21:15:47.197Z,99513.28
2022-08-11T21:18:41.843Z,99513.75
2022-08-11T21:21:45.391Z,99511.16
2022-08-11T21:24:37.145Z,99510.66
2022-08-11T21:27:34.018Z,99508.59
2022-08-11T21:30:22.523Z,99511.38
2022-08-11T21:33:10.359Z,99513.59
2022-08-11T21:35:58.657Z,99520.13
2022-08-11T21:38:48.041Z,99522.06
2022-08-11T21:41:36.349Z,99528.63
2022-08-11T21:44:26.644Z,99530.59
2022-08-11T21:47:21.038Z,99530.34
2022-08-11T21:50:22.515Z,99535.00
2022-08-11T21:53:11.232Z,99532.28
2022-08-11T21:55:58.815Z,99525.47
2022-08-11T21:58:45.789Z,99534.53
2022-08-11T22:01:34.443Z,99532.91
2022-08-11T22:04:22.666Z,99529.69
2022-08-11T22:07:10.054Z,99536.78
2022-08-11T22:09:58.412Z,99531.34
2022-08-11T22:12:45.471Z,99528.66
2022-08-11T22:15:31.901Z,99523.22
2022-08-11T22:18:20.444Z,99521.56
2022-08-11T22:21:09.370Z,99527.59
2022-08-11T22:24:02.617Z,99527.88
2022-08-11T22:26:54.825Z,99527.03
2022-08-11T22:29:51.208Z,99537.84
2022-08-11T22:32:42.031Z,99533.03
2022-08-11T22:35:30.320Z,99531.44
2022-08-11T22:38:18.565Z,99534.16
2022-08-11T22:41:05.222Z,99532.00
2022-08-11T22:43:53.133Z,99532.56
2022-08-11T22:46:41.296Z,99526.59
2022-08-11T22:49:30.565Z,99526.03
2022-08-11T22:52:40.536Z,99522.25
2022-08-11T22:55:28.894Z,99525.50
2022-08-11T22:58:16.080Z,99526.03
2022-08-11T23:01:04.395Z,99526.03
2022-08-11T23:03:52.147Z,99531.50
2022-08-11T23:06:40.302Z,99529.88
2022-08-11T23:09:27.591Z,99530.94
2022-08-11T23:12:16.197Z,99530.94
2022-08-11T23:15:03.633Z,99532.03
2022-08-11T23:17:51.486Z,99527.41
2022-08-11T23:20:41.654Z,99528.22
2022-08-11T23:23:35.959Z,99523.59
2022-08-11T23:26:23.298Z,99520.06
2022-08-11T23:29:11.411Z,99530.91
2022-08-11T23:31:58.594Z,99523.59
2022-08-11T23:35:04.043Z,99522.19
2022-08-11T23:38:00.193Z,99519.19
2022-08-11T23:40:46.855Z,99517.84
2022-08-11T23:43:38.868Z,99523.28
2022-08-11T23:46:25.493Z,99519.69
2022-08-11T23:49:17.836Z,99521.63
2022-08-11T23:52:07.666Z,99524.06
2022-08-11T23:54:54.933Z,99520.22
2022-08-11T23:57:47.985Z,99521.00
